Time;durP1;ratioP1;P1;durP2;ratioP2;P2;SDS_P1;SDS_P2;PMS_P1;PMS_P2;Temp;Humidity;BMP_temperature;BMP_pressure;BME280_temperature;BME280_humidity;BME280_pressure;Samples;Min_cycle;Max_cycle;Signal;HPM_P1;HPM_P2
2023/06/19 00:00:30;;;;;;;12.10;11.10;;;17.80;99.90;;;;;;5013739;28;20479;-83
2023/06/19 00:03:04;;;;;;;12.33;11.20;;;17.70;99.90;;;;;;5009070;28;20439;-82
2023/06/19 00:05:32;;;;;;;13.60;12.40;;;17.70;99.90;;;;;;5014689;28;20448;-82
2023/06/19 00:07:59;;;;;;;12.60;11.47;;;17.80;99.90;;;;;;5002473;28;20442;-83
2023/06/19 00:10:26;;;;;;;14.27;12.87;;;17.90;99.90;;;;;;5019295;28;21025;-82
2023/06/19 00:12:53;;;;;;;11.33;10.33;;;17.90;99.90;;;;;;5001738;28;20451;-84
2023/06/19 00:15:20;;;;;;;12.73;11.53;;;17.90;99.90;;;;;;5008767;28;20447;-83
2023/06/19 00:17:47;;;;;;;12.30;11.10;;;17.90;99.90;;;;;;5014689;28;20434;-82
2023/06/19 00:20:14;;;;;;;13.60;12.20;;;17.70;99.90;;;;;;5006239;28;20447;-81
2023/06/19 00:22:41;;;;;;;13.23;11.87;;;17.60;99.90;;;;;;5012000;28;20659;-82
2023/06/19 00:25:08;;;;;;;12.53;11.43;;;17.80;99.90;;;;;;5005903;28;20544;-80
2023/06/19 00:27:35;;;;;;;12.67;11.63;;;18.00;99.90;;;;;;5001335;28;20648;-82
2023/06/19 00:30:03;;;;;;;12.27;11.27;;;;;;;;;;5000539;28;20502;-81
2023/06/19 00:32:30;;;;;;;12.87;11.70;;;17.50;99.90;;;;;;5003046;28;20447;-83
2023/06/19 00:35:01;;;;;;;13.40;12.10;;;;;;;;;;5009604;28;20515;-83
2023/06/19 00:37:32;;;;;;;11.30;10.40;;;;;;;;;;5019876;28;20447;-82
2023/06/19 00:40:01;;;;;;;24.87;21.60;;;;;;;;;;5012951;28;20460;-83
2023/06/19 00:42:29;;;;;;;14.50;13.17;;;17.30;99.90;;;;;;5007668;28;20485;-83
2023/06/19 00:44:55;;;;;;;13.60;12.20;;;17.40;99.90;;;;;;5007527;28;20438;-82
2023/06/19 00:47:23;;;;;;;12.00;11.00;;;17.20;99.90;;;;;;5005860;28;20768;-83
2023/06/19 00:49:50;;;;;;;14.23;12.93;;;17.20;99.90;;;;;;5002929;28;20447;-82
2023/06/19 00:52:18;;;;;;;14.13;12.73;;;18.20;99.90;;;;;;5004367;28;20446;-83
2023/06/19 00:54:45;;;;;;;12.90;11.57;;;17.70;99.90;;;;;;5005333;28;20990;-83
2023/06/19 00:57:12;;;;;;;13.73;12.43;;;17.10;99.90;;;;;;5002954;28;20444;-83
2023/06/19 00:59:40;;;;;;;12.63;11.50;;;17.40;99.90;;;;;;5010856;28;20435;-83
2023/06/19 01:02:07;;;;;;;13.80;12.37;;;17.20;99.90;;;;;;5008952;28;20888;-84
2023/06/19 01:04:35;;;;;;;15.10;13.60;;;17.50;99.90;;;;;;5007285;28;20466;-81
2023/06/19 01:07:51;;;;;;;13.07;11.77;;;17.00;99.90;;;;;;5005630;28;20447;-83
2023/06/19 01:10:36;;;;;;;13.90;12.50;;;17.20;99.90;;;;;;5015039;28;20431;-83
2023/06/19 01:13:18;;;;;;;15.63;14.23;;;16.80;99.90;;;;;;5013284;28;20458;-84
2023/06/19 01:15:47;;;;;;;13.63;12.40;;;;;;;;;;5004512;28;20439;-85
2023/06/19 01:18:15;;;;;;;14.30;13.00;;;17.10;99.90;;;;;;5012688;28;20538;-86
2023/06/19 01:20:43;;;;;;;12.60;11.40;;;17.40;99.90;;;;;;5004400;28;20513;-86
2023/06/19 01:23:13;;;;;;;11.87;10.67;;;17.10;99.90;;;;;;5010549;28;20462;-83
2023/06/19 01:25:41;;;;;;;13.67;12.47;;;17.10;99.90;;;;;;5010525;28;20438;-83
2023/06/19 01:28:11;;;;;;;14.50;13.07;;;16.90;99.90;;;;;;5015042;28;20518;-85
2023/06/19 01:30:41;;;;;;;13.00;11.80;;;16.60;99.90;;;;;;5011322;28;20446;-83
2023/06/19 01:33:18;;;;;;;13.30;12.00;;;17.00;99.90;;;;;;4990447;28;20454;-83
2023/06/19 01:35:47;;;;;;;14.37;13.00;;;16.90;99.90;;;;;;5009963;28;20431;-80
2023/06/19 01:38:17;;;;;;;15.07;13.57;;;16.40;99.90;;;;;;5017860;28;20454;-84
2023/06/19 01:40:45;;;;;;;13.90;12.60;;;16.70;99.90;;;;;;5022718;28;20464;-87
2023/06/19 01:43:13;;;;;;;13.77;12.57;;;16.50;99.90;;;;;;5025876;28;20445;-86
2023/06/19 01:45:40;;;;;;;13.73;12.43;;;;;;;;;;5016571;28;20455;-85
2023/06/19 01:48:08;;;;;;;13.30;12.10;;;;;;;;;;5020595;28;20442;-83
2023/06/19 01:50:35;;;;;;;13.97;12.57;;;;;;;;;;5010480;28;20454;-84
2023/06/19 01:53:03;;;;;;;15.07;12.27;;;;;;;;;;4993001;28;20723;-84
2023/06/19 01:55:30;;;;;;;14.93;13.37;;;;;;;;;;5006657;28;20454;-85
2023/06/19 01:57:58;;;;;;;14.43;13.07;;;;;;;;;;5011562;28;20454;-85
2023/06/19 02:00:27;;;;;;;20.67;14.23;;;;;;;;;;5014719;28;20438;-84
2023/06/19 02:02:54;;;;;;;13.43;12.13;;;;;;;;;;5004465;28;20529;-83
2023/06/19 02:05:22;;;;;;;15.00;13.50;;;;;;;;;;5005328;28;20450;-84
2023/06/19 02:07:51;;;;;;;14.80;13.30;;;;;;;;;;5012859;28;20763;-85
2023/06/19 02:10:19;;;;;;;16.37;14.37;;;;;;;;;;5010387;28;20512;-83
2023/06/19 02:12:46;;;;;;;14.80;13.37;;;;;;;;;;5005205;28;20443;-84
2023/06/19 02:15:14;;;;;;;16.37;14.67;;;;;;;;;;5012960;28;20467;-83
2023/06/19 02:17:42;;;;;;;14.70;13.40;;;;;;;;;;5003040;28;20445;-83
2023/06/19 02:20:11;;;;;;;14.07;12.67;;;;;;;;;;5006696;28;20454;-85
2023/06/19 02:22:39;;;;;;;13.60;12.30;;;;;;;;;;5008261;28;20489;-81
2023/06/19 02:25:07;;;;;;;15.77;14.13;;;;;;;;;;5017214;28;20450;-83
2023/06/19 02:27:34;;;;;;;14.43;13.13;;;;;;;;;;5011246;28;20460;-82
2023/06/19 02:30:01;;;;;;;14.80;13.40;;;;;;;;;;5009216;28;20455;-83
2023/06/19 02:32:29;;;;;;;15.13;13.67;;;;;;;;;;4986803;28;20474;-83
2023/06/19 02:34:57;;;;;;;15.10;13.07;;;;;;;;;;4994440;28;20674;-84
2023/06/19 02:37:24;;;;;;;15.33;12.97;;;;;;;;;;5013992;28;20461;-84
2023/06/19 02:39:52;;;;;;;15.07;13.47;;;;;;;;;;5013091;28;20626;-85
2023/06/19 02:42:19;;;;;;;16.67;14.93;;;;;;;;;;5014313;28;20452;-84
2023/06/19 02:44:46;;;;;;;17.53;15.73;;;;;;;;;;4999270;28;20443;-83
2023/06/19 02:47:14;;;;;;;19.90;17.77;;;;;;;;;;5001856;28;20459;-84
2023/06/19 02:49:41;;;;;;;18.93;16.67;;;;;;;;;;5004422;28;20451;-83
2023/06/19 02:52:10;;;;;;;15.53;14.00;;;;;;;;;;5010764;28;20499;-86
2023/06/19 02:54:37;;;;;;;19.93;14.40;;;;;;;;;;5015993;28;20441;-82
2023/06/19 02:57:05;;;;;;;17.80;15.73;;;;;;;;;;5018203;28;20448;-82
2023/06/19 02:59:32;;;;;;;17.47;14.47;;;;;;;;;;4999865;28;20434;-84
2023/06/19 03:02:00;;;;;;;16.27;14.73;;;;;;;;;;5027712;28;20472;-88
2023/06/19 03:04:29;;;;;;;16.23;14.63;;;;;;;;;;5020526;28;20505;-84
2023/06/19 03:06:58;;;;;;;15.10;13.70;;;;;;;;;;5016319;28;20457;-84
2023/06/19 03:09:27;;;;;;;15.73;14.20;;;;;;;;;;4983400;28;20443;-83
2023/06/19 03:11:54;;;;;;;16.03;14.57;;;;;;;;;;4992282;28;20423;-83
2023/06/19 03:14:22;;;;;;;15.00;13.53;;;;;;;;;;5009068;28;20434;-83
2023/06/19 03:16:49;;;;;;;14.17;12.77;;;;;;;;;;5008451;28;20481;-83
2023/06/19 03:19:16;;;;;;;15.20;13.70;;;;;;;;;;5006733;28;20454;-82
2023/06/19 03:21:44;;;;;;;16.87;14.67;;;;;;;;;;5007904;28;20514;-82
2023/06/19 03:24:13;;;;;;;17.60;15.43;;;;;;;;;;5021539;28;20510;-82
2023/06/19 03:26:43;;;;;;;15.27;13.33;;;;;;;;;;5006403;28;20471;-85
2023/06/19 03:29:11;;;;;;;16.63;14.87;;;;;;;;;;5009254;28;21016;-85
2023/06/19 03:31:39;;;;;;;15.43;13.70;;;;;;;;;;5012890;28;20465;-84
2023/06/19 03:34:09;;;;;;;14.90;13.40;;;;;;;;;;5011918;28;20447;-83
2023/06/19 03:36:36;;;;;;;16.20;14.60;;;;;;;;;;5014223;28;20439;-84
2023/06/19 03:39:06;;;;;;;14.27;12.80;;;;;;;;;;5007737;28;20455;-85
2023/06/19 03:41:33;;;;;;;16.80;14.10;;;;;;;;;;5028325;28;20522;-84
2023/06/19 03:44:01;;;;;;;14.20;12.80;;;;;;;;;;5015991;28;20514;-84
2023/06/19 03:46:28;;;;;;;15.53;13.70;;;;;;;;;;5019292;28;20435;-85
2023/06/19 03:48:55;;;;;;;14.63;13.33;;;;;;;;;;5013052;28;20446;-87
2023/06/19 03:51:23;;;;;;;16.20;14.43;;;;;;;;;;5018324;28;20446;-86
2023/06/19 03:53:50;;;;;;;15.57;13.97;;;;;;;;;;5007935;28;20443;-89
2023/06/19 03:56:18;;;;;;;15.90;14.47;;;;;;;;;;4988747;28;20446;-84
2023/06/19 03:58:46;;;;;;;15.30;13.90;;;;;;;;;;5006767;28;20454;-83
2023/06/19 04:01:14;;;;;;;14.10;12.70;;;;;;;;;;5009734;28;20447;-85
2023/06/19 04:03:44;;;;;;;14.97;13.63;;;;;;;;;;5016131;28;20436;-88
2023/06/19 04:06:12;;;;;;;16.83;15.20;;;;;;;;;;4999479;28;20422;-85
2023/06/19 04:08:39;;;;;;;14.43;13.03;;;;;;;;;;4986500;28;20430;-88
2023/06/19 04:11:07;;;;;;;15.67;14.17;;;;;;;;;;4983341;28;20763;-86
2023/06/19 04:13:35;;;;;;;15.10;13.67;;;;;;;;;;5011780;28;21089;-88
2023/06/19 04:16:03;;;;;;;13.60;12.30;;;;;;;;;;5010770;28;20763;-87
2023/06/19 04:18:31;;;;;;;15.30;14.00;;;;;;;;;;4992283;28;20438;-89
2023/06/19 04:20:59;;;;;;;16.10;14.20;;;;;;;;;;5009537;28;20558;-88
2023/06/19 04:23:27;;;;;;;15.30;14.00;;;;;;;;;;5009236;28;20449;-88
2023/06/19 04:25:57;;;;;;;15.20;13.57;;;;;;;;;;5013224;28;20469;-88
2023/06/19 04:28:25;;;;;;;16.73;15.23;;;;;;;;;;5003089;28;20498;-88
2023/06/19 04:31:00;;;;;;;15.30;13.90;;;;;;;;;;5008939;28;20426;-90
2023/06/19 04:33:34;;;;;;;16.00;14.43;;;;;;;;;;5021674;28;20449;-88
2023/06/19 04:36:04;;;;;;;15.23;13.70;;;;;;;;;;5010500;28;20439;-88
2023/06/19 04:38:31;;;;;;;16.07;14.00;;;;;;;;;;5013000;28;20418;-89
2023/06/19 04:40:58;;;;;;;14.33;13.03;;;;;;;;;;5002511;28;20537;-90
2023/06/19 04:43:26;;;;;;;15.13;13.73;;;;;;;;;;5024079;28;20805;-91
2023/06/19 04:45:54;;;;;;;15.70;14.30;;;;;;;;;;4999711;28;20429;-85
2023/06/19 04:48:24;;;;;;;16.27;14.67;;;;;;;;;;5269967;22;20610;-86
2023/06/19 04:50:54;;;;;;;13.80;12.63;;;;;;;;;;5050510;28;20472;-84
2023/06/19 04:53:21;;;;;;;16.87;13.03;;;;;;;;;;5052568;28;20437;-84
2023/06/19 04:55:49;;;;;;;14.80;13.30;;;;;;;;;;5163235;22;20471;-85
2023/06/19 04:58:20;;;;;;;14.60;13.30;;;;;;;;;;4996220;28;20421;-86
2023/06/19 05:00:52;;;;;;;16.00;14.50;;;;;;;;;;5018400;28;20525;-85
2023/06/19 05:03:21;;;;;;;15.57;14.17;;;;;;;;;;5000152;28;20689;-85
2023/06/19 05:05:49;;;;;;;16.60;15.00;;;;;;;;;;5021780;28;20442;-87
2023/06/19 05:08:18;;;;;;;16.17;14.60;;;;;;;;;;5016331;28;20438;-88
2023/06/19 05:10:48;;;;;;;17.00;15.20;;;;;;;;;;5015390;28;20474;-88
2023/06/19 05:13:20;;;;;;;14.50;13.20;;;;;;;;;;5024024;28;20470;-89
2023/06/19 05:15:52;;;;;;;14.77;13.47;;;;;;;;;;5018727;28;20414;-88
2023/06/19 05:18:22;;;;;;;14.03;12.60;;;;;;;;;;5025771;28;20664;-88
2023/06/19 05:20:49;;;;;;;15.80;14.20;;;;;;;;;;4992345;28;20518;-86
2023/06/19 05:23:17;;;;;;;16.83;14.50;;;;;;;;;;5002452;28;20511;-86
2023/06/19 05:25:44;;;;;;;17.57;14.37;;;;;;;;;;5017632;28;20635;-84
2023/06/19 05:28:13;;;;;;;14.27;12.80;;;;;;;;;;5013703;28;20428;-87
2023/06/19 05:30:42;;;;;;;15.47;13.43;;;;;;;;;;5028227;28;20531;-85
2023/06/19 05:33:15;;;;;;;14.73;13.33;;;;;;;;;;5004472;28;20441;-86
2023/06/19 05:35:50;;;;;;;14.80;13.40;;;;;;;;;;5020843;28;20505;-85
2023/06/19 05:38:20;;;;;;;14.80;13.60;;;;;;;;;;5016986;28;20468;-86
2023/06/19 05:40:52;;;;;;;15.17;13.13;;;;;;;;;;5021029;28;20633;-86
2023/06/19 05:43:19;;;;;;;15.10;13.70;;;;;;;;;;5026009;28;20521;-82
2023/06/19 05:45:48;;;;;;;13.80;12.50;;;;;;;;;;5022896;28;20891;-85
2023/06/19 05:48:16;;;;;;;16.10;14.60;;;;;;;;;;5026430;28;20502;-85
2023/06/19 05:50:43;;;;;;;14.33;12.93;;;;;;;;;;5005967;28;20433;-87
2023/06/19 05:53:15;;;;;;;15.30;14.00;;;;;;;;;;5012413;28;20830;-82
2023/06/19 05:55:43;;;;;;;13.90;12.20;;;;;;;;;;5009006;28;20441;-87
2023/06/19 05:58:11;;;;;;;13.23;12.03;;;;;;;;;;5019388;28;20541;-80
2023/06/19 06:00:38;;;;;;;14.10;12.90;;;;;;;;;;5027504;28;20864;-86
2023/06/19 06:03:06;;;;;;;15.77;14.37;;;;;;;;;;5012222;28;20467;-87
2023/06/19 06:05:36;;;;;;;14.57;12.17;;;;;;;;;;5021582;28;20443;-86
2023/06/19 06:08:04;;;;;;;13.57;12.27;;;;;;;;;;5013121;28;20446;-88
2023/06/19 06:10:32;;;;;;;13.60;12.47;;;;;;;;;;5005111;28;20516;-85
2023/06/19 06:13:01;;;;;;;12.17;11.10;;;;;;;;;;5020508;28;20463;-85
2023/06/19 06:15:31;;;;;;;11.73;10.83;;;;;;;;;;5009414;28;20445;-86
2023/06/19 06:17:59;;;;;;;11.17;10.17;;;;;;;;;;5007097;28;20554;-86
2023/06/19 06:20:26;;;;;;;11.20;10.40;;;;;;;;;;5023251;28;20478;-82
2023/06/19 06:22:54;;;;;;;11.03;10.10;;;;;;;;;;5008604;28;20799;-85
2023/06/19 06:25:32;;;;;;;13.37;11.97;;;;;;;;;;5022081;28;20470;-84
2023/06/19 06:28:10;;;;;;;11.53;9.90;;;;;;;;;;5020235;28;20838;-88
2023/06/19 06:30:39;;;;;;;11.70;10.70;;;;;;;;;;5019899;28;20426;-85
2023/06/19 06:33:06;;;;;;;11.70;10.80;;;;;;;;;;5021571;28;20447;-85
2023/06/19 06:35:39;;;;;;;13.43;12.30;;;;;;;;;;5011937;28;20484;-87
2023/06/19 06:38:06;;;;;;;23.00;20.57;;;;;;;;;;4998324;28;20534;-86
2023/06/19 06:40:34;;;;;;;15.27;13.30;;;;;;;;;;4997892;28;20438;-85
2023/06/19 06:43:03;;;;;;;15.93;14.43;;;;;;;;;;5011313;28;20556;-88
2023/06/19 06:45:31;;;;;;;11.83;10.73;;;;;;;;;;5018232;28;20450;-87
2023/06/19 06:48:00;;;;;;;12.13;11.13;;;;;;;;;;5004561;28;20422;-82
2023/06/19 06:50:31;;;;;;;11.40;10.40;;;;;;;;;;5000272;28;20444;-86
2023/06/19 06:52:59;;;;;;;12.70;11.50;;;;;;;;;;5002491;28;20413;-85
2023/06/19 06:55:33;;;;;;;10.53;9.73;;;;;;;;;;5018781;28;20438;-84
2023/06/19 06:58:09;;;;;;;12.93;10.80;;;;;;;;;;5018575;28;20671;-83
2023/06/19 07:01:01;;;;;;;11.07;9.97;;;;;;;;;;5010738;28;20755;-85
2023/06/19 07:03:32;;;;;;;12.07;10.30;;;;;;;;;;5021301;28;20478;-87
2023/06/19 07:06:02;;;;;;;11.33;10.20;;;;;;;;;;5016129;28;20441;-86
2023/06/19 07:08:30;;;;;;;11.20;10.10;;;;;;;;;;5006112;28;20413;-86
2023/06/19 07:11:08;;;;;;;13.27;11.50;;;;;;;;;;4996771;28;20506;-86
2023/06/19 07:13:41;;;;;;;10.63;9.73;;;;;;;;;;5009530;28;20435;-87
2023/06/19 07:16:08;;;;;;;11.20;10.10;;;;;;;;;;5016953;28;20581;-86
2023/06/19 07:18:41;;;;;;;12.73;10.37;;;;;;;;;;4999843;28;20442;-85
2023/06/19 07:21:13;;;;;;;13.27;11.53;;;;;;;;;;4998335;28;20802;-86
2023/06/19 07:23:43;;;;;;;11.27;10.27;;;;;;;;;;5014882;28;20486;-85
2023/06/19 07:26:17;;;;;;;11.83;11.03;;;;;;;;;;5000026;28;20504;-83
2023/06/19 07:28:46;;;;;;;9.97;9.23;;;;;;;;;;5018053;28;20450;-86
2023/06/19 07:31:18;;;;;;;16.60;11.13;;;;;;;;;;5013459;28;20459;-84
2023/06/19 07:33:45;;;;;;;11.10;10.30;;;;;;;;;;5010054;28;20417;-85
2023/06/19 07:36:15;;;;;;;12.13;10.47;;;;;;;;;;5012025;28;20430;-85
2023/06/19 07:38:53;;;;;;;11.73;10.80;;;;;;;;;;5008037;28;20458;-84
2023/06/19 07:41:20;;;;;;;12.57;11.47;;;;;;;;;;5015544;28;20507;-85
2023/06/19 07:43:48;;;;;;;11.30;10.50;;;;;;;;;;5013970;28;20542;-85
2023/06/19 07:46:16;;;;;;;11.53;10.33;;;;;;;;;;5013815;28;20507;-86
2023/06/19 07:48:48;;;;;;;12.47;11.20;;;;;;;;;;5009508;28;20438;-86
2023/06/19 07:51:15;;;;;;;12.37;11.20;;;;;;;;;;5022821;28;20442;-85
2023/06/19 07:53:43;;;;;;;11.13;10.10;;;;;;;;;;4993522;28;20434;-86
2023/06/19 07:56:10;;;;;;;12.00;10.83;;;;;;;;;;5009530;28;20470;-84
2023/06/19 07:58:41;;;;;;;11.70;10.63;;;;;;;;;;5015819;28;20443;-85
2023/06/19 08:01:10;;;;;;;9.70;9.00;;;;;;;;;;5023875;28;20530;-86
2023/06/19 08:03:37;;;;;;;10.23;9.27;;;;;;;;;;5022036;28;20834;-85
2023/06/19 08:06:05;;;;;;;11.40;10.43;;;;;;;;;;5022280;28;20442;-86
2023/06/19 08:08:33;;;;;;;9.57;8.77;;;;;;;;;;5018847;28;20461;-85
2023/06/19 08:11:01;;;;;;;10.80;9.70;;;;;;;;;;5020922;28;20470;-83
2023/06/19 08:13:28;;;;;;;10.13;9.17;;;;;;;;;;5008983;28;20446;-86
2023/06/19 08:15:56;;;;;;;10.10;9.40;;;;;;;;;;5016094;28;20527;-83
2023/06/19 08:18:23;;;;;;;10.10;9.30;;;;;;;;;;5000188;28;20479;-85
2023/06/19 08:20:51;;;;;;;11.40;10.50;;;;;;;;;;5026999;28;20460;-85
2023/06/19 08:23:18;;;;;;;11.00;10.17;;;;;;;;;;5036937;28;20481;-89
2023/06/19 08:25:47;;;;;;;9.77;8.97;;;;;;;;;;5001999;28;20515;-85
2023/06/19 08:28:15;;;;;;;10.40;9.60;;;;;;;;;;5012626;28;20452;-85
2023/06/19 08:30:42;;;;;;;11.77;9.87;;;;;;;;;;5016813;28;20515;-84
2023/06/19 08:33:12;;;;;;;10.27;9.47;;;;;;;;;;5011656;28;20544;-86
2023/06/19 08:35:40;;;;;;;10.03;9.13;;;;;;;;;;5022608;28;20450;-87
2023/06/19 08:38:12;;;;;;;10.10;9.30;;;;;;;;;;5016621;28;20450;-84
2023/06/19 08:40:39;;;;;;;11.47;9.33;;;;;;;;;;5033702;28;20462;-85
2023/06/19 08:43:06;;;;;;;11.80;10.10;;;;;;;;;;5034524;28;20469;-85
2023/06/19 08:45:34;;;;;;;12.90;9.20;;;;;;;;;;5020536;28;20439;-85
2023/06/19 08:48:08;;;;;;;9.83;9.00;;;;;;;;;;5016378;28;20470;-85
2023/06/19 08:50:37;;;;;;;9.20;8.50;;;;;;;;;;4991601;28;20728;-86
2023/06/19 08:53:05;;;;;;;9.40;8.80;;;;;;;;;;5014614;28;20455;-82
2023/06/19 08:55:33;;;;;;;9.67;8.73;;;;;;;;;;5015496;28;20462;-85
2023/06/19 08:58:01;;;;;;;8.90;8.30;;;;;;;;;;5018190;28;20436;-81
2023/06/19 09:00:31;;;;;;;9.40;8.80;;;;;;;;;;5014054;28;20447;-84
2023/06/19 09:03:03;;;;;;;8.63;7.93;;;;;;;;;;4995118;28;20553;-84
2023/06/19 09:05:49;;;;;;;9.13;8.30;;;;;;;;;;5017463;28;20497;-86
2023/06/19 09:08:19;;;;;;;9.20;8.40;;;;;;;;;;4998660;28;20541;-85
2023/06/19 09:10:59;;;;;;;9.87;8.97;;;;;;;;;;5019828;28;20520;-84
2023/06/19 09:13:29;;;;;;;8.03;7.53;;;;;;;;;;5009668;28;20449;-85
2023/06/19 09:16:00;;;;;;;8.30;7.70;;;;;;;;;;5017526;28;20463;-81
2023/06/19 09:18:27;;;;;;;7.60;7.10;;;;;;;;;;5021797;28;20449;-80
2023/06/19 09:21:00;;;;;;;7.67;7.07;;;;;;;;;;5020840;28;20441;-83
2023/06/19 09:23:28;;;;;;;8.83;7.90;;;;;;;;;;5000610;28;20493;-84
2023/06/19 09:25:58;;;;;;;9.50;8.60;;;;;;;;;;5016319;28;20499;-85
2023/06/19 09:28:27;;;;;;;8.83;8.13;;;;;;;;;;4989858;28;20511;-84
2023/06/19 09:31:00;;;;;;;8.30;7.70;;;;;;;;;;5021339;28;20514;-83
2023/06/19 09:33:29;;;;;;;8.43;7.93;;;;;;;;;;5023536;28;20522;-85
2023/06/19 09:35:57;;;;;;;7.30;6.80;;;;;;;;;;5014950;28;20439;-83
2023/06/19 09:38:27;;;;;;;8.70;8.00;;;;;;;;;;5022919;28;20796;-84
2023/06/19 09:40:56;;;;;;;8.90;8.23;;;;;;;;;;4992304;28;20439;-85
2023/06/19 09:43:34;;;;;;;11.33;8.03;;;;;;;;;;5014099;28;20497;-86
2023/06/19 09:46:02;;;;;;;7.50;6.90;;;;;;;;;;5011782;28;20638;-83
2023/06/19 09:48:34;;;;;;;7.87;7.27;;;;;;;;;;5022130;28;20449;-82
2023/06/19 09:51:11;;;;;;;8.00;7.50;;;;;;;;;;5022378;28;20431;-78
2023/06/19 09:53:38;;;;;;;8.00;7.40;;;;;;;;;;5021939;28;20426;-85
2023/06/19 09:56:07;;;;;;;7.47;6.87;;;;;;;;;;5026579;28;20456;-85
2023/06/19 09:58:36;;;;;;;7.37;6.87;;;;;;;;;;5027603;28;20469;-84
2023/06/19 10:01:07;;;;;;;7.77;7.00;;;;;;;;;;5031893;28;20423;-84
2023/06/19 10:03:35;;;;;;;8.37;7.77;;;;;;;;;;5018145;28;20478;-83
2023/06/19 10:06:03;;;;;;;8.63;8.03;;;;;;;;;;5012197;28;20452;-86
2023/06/19 10:08:31;;;;;;;8.40;7.80;;;;;;;;;;5013603;28;20442;-82
2023/06/19 10:11:01;;;;;;;9.07;8.30;;;;;;;;;;5006359;28;20427;-84
2023/06/19 10:13:38;;;;;;;7.90;7.40;;;;;;;;;;5021459;28;20521;-84
2023/06/19 10:16:06;;;;;;;8.30;7.60;;;;;;;;;;4996292;28;20446;-85
2023/06/19 10:18:45;;;;;;;8.00;7.27;;;;;;;;;;5021908;28;20443;-84
2023/06/19 10:21:17;;;;;;;8.33;7.63;;;;;;;;;;5018876;28;20479;-83
2023/06/19 10:23:54;;;;;;;8.67;7.97;;;;;;;;;;5005040;28;20534;-84
2023/06/19 10:26:31;;;;;;;8.27;7.57;;;;;;;;;;5009591;28;20708;-84
2023/06/19 10:28:58;;;;;;;7.93;7.20;;;;;;;;;;5007850;28;20446;-86
2023/06/19 10:31:28;;;;;;;7.50;7.00;;;;;;;;;;5012960;28;20449;-87
2023/06/19 10:33:56;;;;;;;7.70;7.20;;;;;;;;;;5017578;28;20876;-85
2023/06/19 10:36:25;;;;;;;7.53;6.93;;;;;;;;;;4997497;28;20454;-83
2023/06/19 10:38:54;;;;;;;8.00;7.40;;;;;;;;;;5006474;28;20500;-82
2023/06/19 10:41:25;;;;;;;8.63;8.03;;;;;;;;;;5016998;28;20497;-82
2023/06/19 10:43:53;;;;;;;8.00;7.50;;;;;;;;;;5019566;28;20505;-87
2023/06/19 10:46:23;;;;;;;7.93;7.43;;;;;;;;;;5002805;28;20469;-84
2023/06/19 10:48:56;;;;;;;7.80;7.23;;;;;;;;;;5005643;28;20417;-83
2023/06/19 10:51:24;;;;;;;7.40;7.00;;;;;;;;;;5011109;28;20682;-86
2023/06/19 10:53:53;;;;;;;8.07;7.47;;;;;;;;;;4994691;28;20455;-83
2023/06/19 10:56:22;;;;;;;7.80;7.30;;;;;;;;;;5016860;28;20458;-86
2023/06/19 10:58:56;;;;;;;8.73;8.03;;;;;;;;;;5010397;28;21096;-83
2023/06/19 11:01:32;;;;;;;8.47;7.87;;;;;;;;;;5006493;28;20453;-84
2023/06/19 11:03:59;;;;;;;7.60;7.07;;;;;;;;;;5019613;28;20474;-84
2023/06/19 11:06:27;;;;;;;7.10;6.60;;;;;;;;;;5020118;28;20434;-85
2023/06/19 11:08:56;;;;;;;8.03;7.43;;;;;;;;;;5012558;28;20447;-88
2023/06/19 11:11:23;;;;;;;6.97;6.47;;;;;;;;;;5012900;28;20459;-85
2023/06/19 11:13:51;;;;;;;7.30;6.80;;;;;;;;;;5016432;28;20501;-85
2023/06/19 11:16:18;;;;;;;7.03;6.63;;;;;;;;;;5015131;28;20790;-84
2023/06/19 11:18:46;;;;;;;7.83;7.20;;;;;;;;;;5014503;28;20538;-86
2023/06/19 11:21:13;;;;;;;8.53;7.77;;;;;;;;;;5020940;28;20449;-86
2023/06/19 11:23:48;;;;;;;7.53;6.93;;;;;;;;;;4999215;28;20505;-85
2023/06/19 11:26:15;;;;;;;8.73;7.50;;;;;;;;;;4993952;28;20501;-86
2023/06/19 11:28:48;;;;;;;8.80;7.90;;;;;;;;;;5022173;28;20453;-83
2023/06/19 11:31:15;;;;;;;7.67;7.00;;;;;;;;;;5011930;28;20450;-87
2023/06/19 11:33:43;;;;;;;7.27;6.87;;;;;;;;;;5021507;28;20772;-83
2023/06/19 11:36:10;;;;;;;7.53;7.00;;;;;;;;;;5018943;28;20767;-86
2023/06/19 11:38:40;;;;;;;8.00;7.50;;;;;;;;;;5015038;28;20507;-87
2023/06/19 11:41:08;;;;;;;10.00;7.63;;;;;;;;;;5015018;28;20439;-83
2023/06/19 11:43:36;;;;;;;8.10;7.60;;;;;;;;;;5020160;28;20485;-80
2023/06/19 11:46:04;;;;;;;6.30;5.80;;;;;;;;;;5036421;28;20510;-85
2023/06/19 11:48:31;;;;;;;7.97;7.27;;;;;;;;;;5030994;28;20439;-89
2023/06/19 11:50:59;;;;;;;8.17;7.60;;;;;;;;;;5010310;28;20475;-84
2023/06/19 11:53:28;;;;;;;7.40;6.90;;;;;;;;;;5020070;28;20628;-82
2023/06/19 11:55:56;;;;;;;7.27;6.80;;;;;;;;;;4994639;28;20481;-84
2023/06/19 11:58:24;;;;;;;8.00;7.40;;;;;;;;;;5021686;28;20505;-84
2023/06/19 12:00:56;;;;;;;7.60;6.90;;;;;;;;;;5027565;28;20477;-83
2023/06/19 12:03:24;;;;;;;8.07;7.47;;;;;;;;;;5013487;28;20628;-89
2023/06/19 12:05:52;;;;;;;8.67;7.97;;;;;;;;;;5013735;28;20430;-85
2023/06/19 12:08:19;;;;;;;7.40;6.90;;;;;;;;;;5026322;28;20518;-84
2023/06/19 12:10:46;;;;;;;8.20;7.60;;;;;;;;;;5026808;28;20454;-85
2023/06/19 12:13:13;;;;;;;8.10;7.50;;;;;;;;;;5018222;28;20630;-83
2023/06/19 12:15:41;;;;;;;9.10;8.50;;;;;;;;;;5029639;28;20461;-85
2023/06/19 12:18:12;;;;;;;8.37;7.80;;;;;;;;;;5024359;28;20469;-85
2023/06/19 12:20:39;;;;;;;8.73;8.03;;;;;;;;;;5013110;28;20447;-84
2023/06/19 12:23:07;;;;;;;7.40;6.90;;;;;;;;;;5024756;28;20443;-86
2023/06/19 12:25:34;;;;;;;8.73;8.13;;;;;;;;;;5019180;28;20558;-87
2023/06/19 12:28:08;;;;;;;8.73;8.00;;;;;;;;;;5004769;28;20460;-86
2023/06/19 12:30:36;;;;;;;8.17;7.43;;;;;;;;;;5011497;28;20640;-85
2023/06/19 12:33:05;;;;;;;8.93;8.30;;;;;;;;;;5014928;28;20448;-85
2023/06/19 12:35:33;;;;;;;8.30;7.70;;;;;;;;;;5017198;28;20479;-82
2023/06/19 12:38:01;;;;;;;8.27;7.77;;;;;;;;;;5018850;28;20639;-87
2023/06/19 12:40:31;;;;;;;8.70;8.00;;;;;;;;;;5022786;28;20751;-84
2023/06/19 12:42:59;;;;;;;8.47;7.77;;;;;;;;;;5022225;28;20712;-85
2023/06/19 12:45:27;;;;;;;9.00;8.30;;;;;;;;;;5018431;28;20491;-84
2023/06/19 12:47:56;;;;;;;8.67;8.10;;;;;;;;;;5018186;28;20510;-85
2023/06/19 12:50:24;;;;;;;8.53;7.90;;;;;;;;;;5017782;28;20450;-83
2023/06/19 12:52:52;;;;;;;9.20;8.50;;;;;;;;;;5019742;28;20501;-83
2023/06/19 12:55:20;;;;;;;9.93;7.43;;;;;;;;;;5015888;28;20447;-85
2023/06/19 13:00:16;;;;;;;8.20;7.70;;;;;;;;;;5006822;28;20481;-83
2023/06/19 13:02:46;;;;;;;7.90;7.30;;;;;;;;;;5003472;28;20455;-87
2023/06/19 13:05:13;;;;;;;7.63;7.13;;;;;;;;;;5002648;28;20498;-84
2023/06/19 13:07:41;;;;;;;9.13;8.33;;;;;;;;;;4997662;28;20682;-82
2023/06/19 13:10:08;;;;;;;9.50;8.80;;;;;;;;;;5004452;28;20434;-86
2023/06/19 13:12:36;;;;;;;12.37;8.10;;;;;;;;;;5002301;28;20483;-84
2023/06/19 13:15:05;;;;;;;8.43;7.83;;;;;;;;;;5000832;28;20717;-84
2023/06/19 13:17:34;;;;;;;9.37;8.60;;;;;;;;;;5003485;28;20507;-86
2023/06/19 13:20:04;;;;;;;8.00;7.50;;;;;;;;;;5013669;28;20452;-87
2023/06/19 13:22:32;;;;;;;9.53;8.80;;;;;;;;;;4994662;28;20435;-85
2023/06/19 13:25:00;;;;;;;9.53;8.83;;;;;;;;;;5008249;28;20722;-86
2023/06/19 13:27:28;;;;;;;10.80;8.97;;;;;;;;;;5006525;28;20446;-86
2023/06/19 13:29:55;;;;;;;8.67;7.97;;;;;;;;;;5007934;28;20475;-84
2023/06/19 13:32:23;;;;;;;8.57;7.77;;;;;;;;;;5007993;28;20751;-83
2023/06/19 13:34:50;;;;;;;8.87;8.17;;;;;;;;;;5010780;28;20459;-83
2023/06/19 13:37:19;;;;;;;8.83;8.17;;;;;;;;;;5001823;28;20747;-85
2023/06/19 13:39:46;;;;;;;8.50;7.90;;;;;;;;;;5002172;28;20442;-83
2023/06/19 13:42:14;;;;;;;9.07;8.27;;;;;;;;;;4984678;28;20455;-87
2023/06/19 13:44:41;;;;;;;8.53;7.63;;;;;;;;;;5001176;28;20459;-83
2023/06/19 13:47:08;;;;;;;8.83;8.13;;;;;;;;;;5001401;28;20459;-85
2023/06/19 13:49:36;;;;;;;8.57;7.90;;;;;;;;;;4977743;28;20451;-85
2023/06/19 13:52:05;;;;;;;8.43;7.83;;;;;;;;;;5000508;28;20577;-84
2023/06/19 13:54:33;;;;;;;8.93;8.23;;;;;;;;;;4982867;28;20827;-82
2023/06/19 13:57:02;;;;;;;8.30;7.73;;;;;;;;;;4997215;28;20463;-82
2023/06/19 13:59:32;;;;;;;9.60;8.80;;;;;;;;;;5002000;28;20452;-83
2023/06/19 14:01:59;;;;;;;8.70;8.17;;;;;;;;;;4984472;28;20594;-80
2023/06/19 14:04:27;;;;;;;8.10;7.30;;;;;;;;;;5002066;28;20629;-82
2023/06/19 14:06:54;;;;;;;9.60;8.80;;;;;;;;;;5002819;28;20439;-86
2023/06/19 14:09:22;;;;;;;8.97;8.17;;;;;;;;;;5013292;28;20448;-86
2023/06/19 14:11:51;;;;;;;8.00;7.40;;;;;;;;;;5003322;28;20612;-85
2023/06/19 14:14:18;;;;;;;9.57;8.77;;;;;;;;;;5003573;28;20512;-83
2023/06/19 14:16:47;;;;;;;8.30;7.70;;;;;;;;;;4984921;28;20435;-86
2023/06/19 14:19:15;;;;;;;9.60;7.43;;;;;;;;;;5001256;28;20695;-84
2023/06/19 14:21:43;;;;;;;9.90;9.20;;;;;;;;;;5000024;28;20443;-84
2023/06/19 14:24:10;;;;;;;8.93;8.13;;;;;;;;;;5004112;28;20539;-84
2023/06/19 14:26:38;;;;;;;8.80;8.10;;;;;;;;;;4998563;28;20870;-87